Time;durP1;ratioP1;P1;durP2;ratioP2;P2;SDS_P1;SDS_P2;PMS_P1;PMS_P2;Temp;Humidity;BMP_temperature;BMP_pressure;BME280_temperature;BME280_humidity;BME280_pressure;Samples;Min_cycle;Max_cycle;Signal;HPM_P1;HPM_P2
2021/04/22 00:02:19;;;;;;;13.27;3.47;;;7.00;1.00;;;;;;5089292;28;20171;-79
2021/04/22 00:04:45;;;;;;;12.03;3.20;;;7.00;1.00;;;;;;5075535;28;20682;-78
2021/04/22 00:07:11;;;;;;;13.10;3.03;;;7.00;1.00;;;;;;5089527;28;20175;-79
2021/04/22 00:09:37;;;;;;;14.13;4.50;;;7.00;1.00;;;;;;5079025;28;20204;-79
2021/04/22 00:12:06;;;;;;;14.70;3.40;;;7.00;1.00;;;;;;5091532;28;20191;-84
2021/04/22 00:14:32;;;;;;;10.27;2.63;;;7.00;1.00;;;;;;5084310;28;20168;-79
2021/04/22 00:16:58;;;;;;;8.63;2.70;;;6.90;1.00;;;;;;5083459;28;20233;-79
2021/04/22 00:19:23;;;;;;;10.67;3.67;;;6.90;1.00;;;;;;5091385;28;20256;-79
2021/04/22 00:21:49;;;;;;;11.73;3.00;;;6.90;1.00;;;;;;5079178;28;20184;-83
2021/04/22 00:24:14;;;;;;;22.67;4.13;;;6.80;1.00;;;;;;5089619;28;20180;-81
2021/04/22 00:26:40;;;;;;;11.80;3.00;;;6.90;1.00;;;;;;5085086;28;20687;-84
2021/04/22 00:29:06;;;;;;;11.13;3.43;;;6.80;1.00;;;;;;5095791;28;20607;-81
2021/04/22 00:31:31;;;;;;;16.43;3.67;;;6.80;1.00;;;;;;5078873;28;20211;-79
2021/04/22 00:33:57;;;;;;;11.70;3.20;;;6.80;1.00;;;;;;5079028;28;20619;-80
2021/04/22 00:36:22;;;;;;;11.70;3.10;;;6.80;1.00;;;;;;5088586;28;20263;-82
2021/04/22 00:38:48;;;;;;;11.73;3.63;;;6.80;1.00;;;;;;5085719;28;20187;-80
2021/04/22 00:41:14;;;;;;;13.87;3.50;;;6.70;1.00;;;;;;5081506;28;20187;-78
2021/04/22 00:43:40;;;;;;;13.10;3.20;;;6.60;1.00;;;;;;5090774;28;20634;-79
2021/04/22 00:46:06;;;;;;;15.33;3.37;;;6.60;1.00;;;;;;5079962;28;20241;-80
2021/04/22 00:48:31;;;;;;;10.73;3.30;;;6.60;1.00;;;;;;5086518;28;20172;-82
2021/04/22 00:50:57;;;;;;;16.30;2.97;;;6.60;1.00;;;;;;5087162;28;20549;-79
2021/04/22 00:53:24;;;;;;;14.40;3.53;;;6.60;1.00;;;;;;5079737;28;20187;-80
2021/04/22 00:55:50;;;;;;;14.67;3.40;;;6.60;1.00;;;;;;5088245;28;20176;-79
2021/04/22 00:58:16;;;;;;;12.17;3.60;;;6.60;1.00;;;;;;5088992;28;20255;-83
2021/04/22 01:00:51;;;;;;;11.90;2.77;;;6.60;1.00;;;;;;5084878;28;20259;-82
2021/04/22 01:03:17;;;;;;;12.47;3.27;;;6.50;1.00;;;;;;5080555;28;20179;-80
2021/04/22 01:05:48;;;;;;;16.80;3.40;;;6.50;1.00;;;;;;5076498;28;20183;-84
2021/04/22 01:08:14;;;;;;;19.90;4.13;;;6.30;1.00;;;;;;5089321;28;20176;-84
2021/04/22 01:10:40;;;;;;;10.33;2.93;;;6.50;1.00;;;;;;5084588;28;20280;-82
2021/04/22 01:13:06;;;;;;;14.27;2.97;;;6.50;1.00;;;;;;5081113;28;20578;-79
2021/04/22 01:15:32;;;;;;;12.37;3.70;;;6.50;1.00;;;;;;5091729;28;20171;-81
2021/04/22 01:17:59;;;;;;;12.67;3.03;;;6.40;1.00;;;;;;5078727;28;20199;-84
2021/04/22 01:20:26;;;;;;;14.50;3.20;;;6.40;1.00;;;;;;5087452;28;20203;-80
2021/04/22 01:22:53;;;;;;;11.63;3.03;;;6.30;1.00;;;;;;5086575;28;20271;-78
2021/04/22 01:25:25;;;;;;;11.47;3.30;;;6.30;1.00;;;;;;5079364;28;20172;-78
2021/04/22 01:27:51;;;;;;;11.93;3.80;;;6.30;1.00;;;;;;5089757;28;20182;-84
2021/04/22 01:30:23;;;;;;;11.83;3.50;;;6.30;1.00;;;;;;5080587;28;20720;-84
2021/04/22 01:32:49;;;;;;;9.50;3.67;;;6.30;1.00;;;;;;5082470;28;20271;-81
2021/04/22 01:35:18;;;;;;;19.93;3.70;;;6.20;1.00;;;;;;5087614;28;20270;-78
2021/04/22 01:37:45;;;;;;;11.57;3.30;;;6.20;1.00;;;;;;5077786;28;20221;-81
2021/04/22 01:40:12;;;;;;;12.20;3.70;;;6.20;1.00;;;;;;5089496;28;20176;-84
2021/04/22 01:42:38;;;;;;;13.73;3.60;;;6.20;1.00;;;;;;5082634;28;20191;-81
2021/04/22 01:45:05;;;;;;;14.50;3.67;;;6.20;1.00;;;;;;5080223;28;20176;-83
2021/04/22 01:47:31;;;;;;;12.00;3.00;;;6.20;1.00;;;;;;5074972;28;20160;-80
2021/04/22 01:49:57;;;;;;;12.57;3.00;;;6.10;1.00;;;;;;5061398;28;20203;-79
2021/04/22 01:52:23;;;;;;;11.70;3.50;;;6.10;1.00;;;;;;5087454;28;20267;-83
2021/04/22 01:54:48;;;;;;;15.93;3.50;;;6.00;1.00;;;;;;5083306;28;20175;-80
2021/04/22 01:57:14;;;;;;;14.27;3.90;;;6.00;1.00;;;;;;5088414;28;20188;-81
2021/04/22 01:59:40;;;;;;;19.70;3.90;;;6.00;1.00;;;;;;5076467;28;20180;-83
2021/04/22 02:02:06;;;;;;;15.33;3.73;;;5.90;1.00;;;;;;5088654;28;20176;-81
2021/04/22 02:04:31;;;;;;;9.67;2.93;;;5.90;1.00;;;;;;5072371;28;20180;-84
2021/04/22 02:06:57;;;;;;;14.40;3.37;;;5.90;1.00;;;;;;5085987;28;20229;-80
2021/04/22 02:09:23;;;;;;;13.03;3.50;;;5.90;1.00;;;;;;5078113;28;20211;-83
2021/04/22 02:11:48;;;;;;;13.70;3.60;;;5.90;1.00;;;;;;5090273;28;20180;-82
2021/04/22 02:14:14;;;;;;;18.33;4.33;;;5.90;1.00;;;;;;5079702;28;20190;-83
2021/04/22 02:16:40;;;;;;;10.47;3.30;;;5.90;1.00;;;;;;5084294;28;20667;-81
2021/04/22 02:19:06;;;;;;;15.27;3.73;;;5.90;1.00;;;;;;5086924;28;20171;-79
2021/04/22 02:21:32;;;;;;;16.40;3.33;;;5.90;1.00;;;;;;5077049;28;20168;-81
2021/04/22 02:23:58;;;;;;;12.97;3.83;;;5.80;1.00;;;;;;5091218;28;20266;-82
2021/04/22 02:26:24;;;;;;;15.00;3.53;;;5.80;1.00;;;;;;5080682;28;20176;-83
2021/04/22 02:28:50;;;;;;;17.93;4.53;;;5.80;1.00;;;;;;5082519;28;20188;-79
2021/04/22 02:31:15;;;;;;;17.50;3.90;;;5.70;1.00;;;;;;5087837;28;20291;-78
2021/04/22 02:33:41;;;;;;;19.77;4.73;;;5.80;1.00;;;;;;5075495;28;20173;-80
2021/04/22 02:36:07;;;;;;;15.53;4.47;;;5.80;1.00;;;;;;5088656;28;20208;-79
2021/04/22 02:38:32;;;;;;;15.13;3.40;;;5.70;1.00;;;;;;5081740;28;20538;-82
2021/04/22 02:40:58;;;;;;;14.37;3.97;;;5.70;1.00;;;;;;5080948;28;20164;-80
2021/04/22 02:43:24;;;;;;;12.27;3.53;;;5.80;1.00;;;;;;5089014;28;20202;-82
2021/04/22 02:45:53;;;;;;;14.37;3.70;;;5.70;1.00;;;;;;5076630;28;20614;-82
2021/04/22 02:48:20;;;;;;;19.43;4.80;;;5.70;1.00;;;;;;5087034;28;20218;-79
2021/04/22 02:50:48;;;;;;;14.13;3.90;;;5.70;1.00;;;;;;5083165;28;20215;-79
2021/04/22 02:53:14;;;;;;;19.07;4.17;;;5.70;1.00;;;;;;5078908;28;20160;-80
2021/04/22 02:55:42;;;;;;;11.73;4.03;;;5.70;1.00;;;;;;5084422;28;20233;-80
2021/04/22 02:58:08;;;;;;;17.83;4.07;;;5.70;1.00;;;;;;5088263;28;20179;-79
2021/04/22 03:00:34;;;;;;;16.97;3.93;;;5.60;1.00;;;;;;5080330;28;20199;-85
2021/04/22 03:03:00;;;;;;;12.70;3.57;;;5.70;1.00;;;;;;5080692;28;20168;-80
2021/04/22 03:05:26;;;;;;;19.23;4.20;;;5.60;1.00;;;;;;5073127;28;20176;-79
2021/04/22 03:07:52;;;;;;;10.27;3.50;;;5.50;1.00;;;;;;5089044;28;20184;-79
2021/04/22 03:10:20;;;;;;;11.47;3.67;;;5.50;1.00;;;;;;5078859;28;20298;-78
2021/04/22 03:12:46;;;;;;;13.87;3.70;;;5.50;1.00;;;;;;5082304;28;20293;-82
2021/04/22 03:15:13;;;;;;;12.60;4.13;;;5.50;1.00;;;;;;5086840;28;20210;-79
2021/04/22 03:17:39;;;;;;;15.33;4.17;;;5.40;1.00;;;;;;5076224;28;20222;-81
2021/04/22 03:20:06;;;;;;;16.90;3.63;;;5.50;1.00;;;;;;5088301;28;20173;-78
2021/04/22 03:22:32;;;;;;;15.47;4.20;;;5.40;1.00;;;;;;5080987;28;20176;-85
2021/04/22 03:24:59;;;;;;;13.13;3.77;;;5.40;1.00;;;;;;5080587;28;20180;-82
2021/04/22 03:27:27;;;;;;;14.70;3.73;;;5.30;1.00;;;;;;5088352;28;20175;-81
2021/04/22 03:29:55;;;;;;;12.07;3.53;;;5.40;1.00;;;;;;5074750;28;20732;-79
2021/04/22 03:32:20;;;;;;;18.10;4.87;;;5.40;1.00;;;;;;5084756;28;20902;-78
2021/04/22 03:34:46;;;;;;;15.83;3.80;;;5.30;1.00;;;;;;5082963;28;20254;-80
2021/04/22 03:37:12;;;;;;;15.93;3.57;;;5.30;1.00;;;;;;5077167;28;20214;-80
2021/04/22 03:39:37;;;;;;;17.17;4.60;;;5.30;1.00;;;;;;5089388;28;20536;-84
2021/04/22 03:42:03;;;;;;;13.00;4.70;;;5.20;1.00;;;;;;5076694;28;20168;-78
2021/04/22 03:44:29;;;;;;;11.60;2.67;;;5.20;1.00;;;;;;5084789;28;20176;-83
2021/04/22 03:46:54;;;;;;;18.03;4.57;;;5.20;1.00;;;;;;5083918;28;20180;-77
2021/04/22 03:49:20;;;;;;;16.80;4.40;;;5.20;1.00;;;;;;5077437;28;20271;-85
2021/04/22 03:51:46;;;;;;;15.67;4.10;;;5.30;1.00;;;;;;5088967;28;20515;-85
2021/04/22 03:54:11;;;;;;;20.50;4.90;;;5.20;1.00;;;;;;5078041;28;20573;-83
2021/04/22 03:56:37;;;;;;;15.20;4.07;;;5.20;1.00;;;;;;5086196;28;20179;-77
2021/04/22 03:59:04;;;;;;;14.90;4.23;;;5.20;1.00;;;;;;5079772;28;20172;-77
2021/04/22 04:01:29;;;;;;;16.93;4.50;;;5.20;1.00;;;;;;5088684;28;20175;-82
2021/04/22 04:03:55;;;;;;;15.87;4.07;;;5.30;1.00;;;;;;5072147;28;20179;-83
2021/04/22 04:06:20;;;;;;;15.07;4.40;;;5.20;1.00;;;;;;5078829;28;20211;-81
2021/04/22 04:08:46;;;;;;;16.00;4.03;;;5.20;1.00;;;;;;5081679;28;20625;-82
2021/04/22 04:11:12;;;;;;;15.33;4.40;;;5.20;1.00;;;;;;5086039;28;20216;-80
2021/04/22 04:13:37;;;;;;;14.67;5.50;;;5.20;1.00;;;;;;5075527;28;20248;-83
2021/04/22 04:16:03;;;;;;;17.90;4.50;;;5.20;1.00;;;;;;5086479;28;20172;-80
2021/04/22 04:18:29;;;;;;;18.40;5.17;;;5.20;1.00;;;;;;5080153;28;20179;-79
2021/04/22 04:20:55;;;;;;;13.63;3.90;;;5.10;1.00;;;;;;5079648;28;20252;-78
2021/04/22 04:23:20;;;;;;;18.37;5.23;;;5.10;1.00;;;;;;5087796;28;20179;-82
2021/04/22 04:25:46;;;;;;;14.60;4.20;;;5.20;1.00;;;;;;5079072;28;20180;-83
2021/04/22 04:28:12;;;;;;;19.50;4.50;;;5.20;1.00;;;;;;5089977;28;20188;-79
2021/04/22 04:30:38;;;;;;;17.27;5.07;;;5.20;1.00;;;;;;5084729;28;20566;-79
2021/04/22 04:33:04;;;;;;;16.30;4.07;;;5.10;1.00;;;;;;5082956;28;20207;-79
2021/04/22 04:35:29;;;;;;;18.90;4.30;;;5.10;1.00;;;;;;5092046;28;20176;-79
2021/04/22 04:37:55;;;;;;;19.57;4.33;;;5.10;1.00;;;;;;5077290;28;20170;-83
2021/04/22 04:40:21;;;;;;;18.67;5.60;;;5.10;1.00;;;;;;5089128;28;20215;-79
2021/04/22 04:42:47;;;;;;;22.53;6.17;;;5.10;1.00;;;;;;5085073;28;20180;-80
2021/04/22 04:45:17;;;;;;;18.47;4.43;;;5.10;1.00;;;;;;5081400;28;20654;-78
2021/04/22 04:47:42;;;;;;;14.40;4.50;;;5.10;1.00;;;;;;5091963;28;20179;-78
2021/04/22 04:50:09;;;;;;;18.97;4.40;;;5.10;1.00;;;;;;5080362;28;20203;-84
2021/04/22 04:52:35;;;;;;;19.50;5.33;;;5.10;1.00;;;;;;5086401;28;20172;-79
2021/04/22 04:55:02;;;;;;;14.67;4.80;;;5.10;1.00;;;;;;5085991;28;20176;-82
2021/04/22 04:57:27;;;;;;;15.33;4.07;;;5.10;1.00;;;;;;5091027;28;20209;-78
2021/04/22 04:59:53;;;;;;;16.50;5.00;;;5.10;1.00;;;;;;5078373;28;20261;-80
2021/04/22 05:02:19;;;;;;;18.20;4.97;;;5.20;1.00;;;;;;5087326;28;20314;-82
2021/04/22 05:04:44;;;;;;;17.40;5.40;;;5.20;1.00;;;;;;5074809;28;20214;-83
2021/04/22 05:07:10;;;;;;;25.37;5.93;;;5.20;1.00;;;;;;5088304;28;20183;-83
2021/04/22 05:09:37;;;;;;;14.30;5.67;;;5.20;1.00;;;;;;5076714;28;20632;-79
2021/04/22 05:12:03;;;;;;;22.10;5.73;;;5.20;1.00;;;;;;5090697;28;20273;-80
2021/04/22 05:14:29;;;;;;;19.90;8.60;;;5.20;1.00;;;;;;5082462;28;20179;-79
2021/04/22 05:16:55;;;;;;;18.77;5.80;;;5.10;1.00;;;;;;5093670;28;20183;-83
2021/04/22 05:19:20;;;;;;;21.30;5.30;;;5.10;1.00;;;;;;5093748;28;20175;-83
2021/04/22 05:21:46;;;;;;;15.43;4.87;;;5.10;1.00;;;;;;5095048;28;20526;-78
2021/04/22 05:24:12;;;;;;;17.73;5.60;;;5.10;1.00;;;;;;5094475;28;20233;-81
2021/04/22 05:26:38;;;;;;;17.53;5.30;;;5.10;1.00;;;;;;5094740;28;20165;-77
2021/04/22 05:29:04;;;;;;;19.40;8.10;;;5.10;1.00;;;;;;5092796;28;20631;-82
2021/04/22 05:31:29;;;;;;;17.90;5.60;;;5.10;1.00;;;;;;5094178;28;20208;-76
2021/04/22 05:33:55;;;;;;;14.40;4.73;;;5.10;1.00;;;;;;5094420;28;20214;-82
2021/04/22 05:36:21;;;;;;;24.10;5.77;;;5.20;1.00;;;;;;5093752;28;20171;-81
2021/04/22 05:38:47;;;;;;;19.10;5.37;;;5.20;1.00;;;;;;5093650;28;20245;-81
2021/04/22 05:41:12;;;;;;;19.67;5.73;;;5.30;1.00;;;;;;5094304;28;20183;-78
2021/04/22 05:43:38;;;;;;;21.53;5.33;;;5.30;1.00;;;;;;5093310;28;20176;-78
2021/04/22 05:46:04;;;;;;;18.97;6.73;;;5.30;1.00;;;;;;5094276;28;20179;-82
2021/04/22 05:48:30;;;;;;;17.33;5.97;;;5.40;1.00;;;;;;5092995;28;20176;-80
2021/04/22 05:50:55;;;;;;;21.60;6.30;;;5.50;1.00;;;;;;5092675;28;20212;-81
2021/04/22 05:53:21;;;;;;;19.70;6.67;;;5.40;1.00;;;;;;5093548;28;20221;-76
2021/04/22 05:55:47;;;;;;;22.40;6.60;;;5.40;1.00;;;;;;5084253;28;20291;-77
2021/04/22 05:58:13;;;;;;;18.57;6.83;;;5.50;1.00;;;;;;5072110;28;20229;-81
2021/04/22 06:00:39;;;;;;;18.37;5.43;;;5.40;1.00;;;;;;5072138;28;20172;-78
2021/04/22 06:03:06;;;;;;;20.53;5.67;;;5.40;1.00;;;;;;5072032;28;20255;-82
2021/04/22 06:05:31;;;;;;;19.03;5.73;;;5.50;1.00;;;;;;5072971;28;20647;-79
2021/04/22 06:07:58;;;;;;;14.93;5.40;;;5.50;1.00;;;;;;5069785;28;20168;-83
2021/04/22 06:10:24;;;;;;;20.33;6.37;;;5.50;1.00;;;;;;5070293;28;20280;-79
2021/04/22 06:12:50;;;;;;;19.63;6.43;;;5.50;1.00;;;;;;5071086;28;20669;-80
2021/04/22 06:15:18;;;;;;;19.40;6.37;;;5.60;1.00;;;;;;5072482;28;20191;-79
2021/04/22 06:17:44;;;;;;;19.20;5.63;;;5.80;1.00;;;;;;5072031;28;20239;-78
2021/04/22 06:20:13;;;;;;;16.57;6.47;;;5.90;1.00;;;;;;5072982;28;20172;-81
2021/04/22 06:22:38;;;;;;;18.00;6.03;;;6.00;1.00;;;;;;5072927;28;20684;-85
2021/04/22 06:25:08;;;;;;;16.33;5.13;;;6.10;1.00;;;;;;5071413;28;20326;-83
2021/04/22 06:27:33;;;;;;;20.47;7.07;;;6.10;1.00;;;;;;5071929;28;20160;-83
2021/04/22 06:30:04;;;;;;;19.73;6.80;;;6.10;1.00;;;;;;5072553;28;20298;-82
2021/04/22 06:32:30;;;;;;;20.87;5.57;;;6.20;1.00;;;;;;5063905;28;20205;-83
2021/04/22 06:34:56;;;;;;;19.27;6.77;;;6.30;1.00;;;;;;5053194;28;20173;-84
2021/04/22 06:37:22;;;;;;;17.07;6.27;;;6.30;1.00;;;;;;5051850;28;20191;-84
2021/04/22 06:39:48;;;;;;;18.10;5.57;;;6.40;1.00;;;;;;5053127;28;20239;-84
2021/04/22 06:42:13;;;;;;;18.63;5.80;;;6.40;1.00;;;;;;5051305;28;20660;-84
2021/04/22 06:44:39;;;;;;;20.07;6.20;;;6.50;1.00;;;;;;5052398;28;20165;-84
2021/04/22 06:47:05;;;;;;;19.60;6.07;;;6.60;1.00;;;;;;5050315;28;20968;-84
2021/04/22 06:49:30;;;;;;;16.50;5.67;;;6.60;1.00;;;;;;5064162;28;20241;-85
2021/04/22 06:51:56;;;;;;;14.90;5.80;;;6.60;1.00;;;;;;5071132;28;20701;-84
2021/04/22 06:54:22;;;;;;;19.47;5.83;;;6.70;1.00;;;;;;5072274;28;20620;-83
2021/04/22 06:56:49;;;;;;;15.37;5.10;;;6.80;1.00;;;;;;5074254;28;20205;-84
2021/04/22 06:59:18;;;;;;;16.33;5.73;;;7.10;1.00;;;;;;5083990;28;20228;-88
2021/04/22 07:01:43;;;;;;;17.57;6.37;;;6.90;1.00;;;;;;5075846;28;20175;-85
2021/04/22 07:04:58;;;;;;;12.07;5.33;;;7.00;1.00;;;;;;5072377;28;20164;-85
2021/04/22 07:07:26;;;;;;;17.13;5.60;;;7.00;1.00;;;;;;5072939;28;20176;-81
2021/04/22 07:09:57;;;;;;;17.10;5.43;;;7.10;1.00;;;;;;5072464;28;20191;-84
2021/04/22 07:12:23;;;;;;;18.10;5.87;;;7.40;1.00;;;;;;5070597;28;20188;-86
2021/04/22 07:14:48;;;;;;;21.10;5.20;;;7.10;1.00;;;;;;5090430;28;20180;-85
2021/04/22 07:17:14;;;;;;;20.23;6.57;;;7.10;1.00;;;;;;5091113;28;20191;-86
2021/04/22 07:19:40;;;;;;;20.80;5.27;;;7.10;1.00;;;;;;5091585;28;20199;-84
2021/04/22 07:22:06;;;;;;;16.43;4.20;;;7.10;1.00;;;;;;5091792;28;20503;-84
2021/04/22 07:24:32;;;;;;;21.47;6.03;;;7.20;1.00;;;;;;5071286;28;20257;-82
2021/04/22 07:26:58;;;;;;;16.17;5.40;;;7.30;1.00;;;;;;5077378;28;20171;-83
2021/04/22 07:29:26;;;;;;;14.73;4.93;;;7.50;99.90;;;;;;5072538;28;20196;-86
2021/04/22 07:31:52;;;;;;;17.83;5.47;;;7.70;1.00;;;;;;5063744;28;20198;-84
2021/04/22 07:34:17;;;;;;;19.43;5.67;;;7.80;99.90;;;;;;5075005;28;20179;-82
2021/04/22 07:36:43;;;;;;;13.23;4.77;;;8.00;99.90;;;;;;5090936;28;20167;-84
2021/04/22 07:39:10;;;;;;;14.13;4.10;;;8.00;59.00;;;;;;5091363;28;20572;-86
2021/04/22 07:41:36;;;;;;;18.43;5.10;;;8.00;1.00;;;;;;5091880;28;20178;-83
2021/04/22 07:45:03;;;;;;;19.17;4.90;;;7.90;1.00;;;;;;5074688;28;20251;-85
2021/04/22 07:47:30;;;;;;;13.73;4.70;;;7.90;1.00;;;;;;5052125;28;20204;-85
2021/04/22 07:49:56;;;;;;;17.50;5.20;;;7.90;1.00;;;;;;5053725;28;20203;-83
2021/04/22 07:52:29;;;;;;;18.93;4.63;;;7.80;1.00;;;;;;5052584;28;20205;-85
2021/04/22 07:54:55;;;;;;;11.30;4.27;;;7.70;1.00;;;;;;5053419;28;20177;-86
2021/04/22 07:57:31;;;;;;;15.73;5.07;;;7.70;11.50;;;;;;5062578;28;20230;-86
2021/04/22 08:00:13;;;;;;;13.33;4.70;;;7.80;1.00;;;;;;5082201;28;20171;-86
2021/04/22 08:02:41;;;;;;;13.10;4.63;;;7.90;1.00;;;;;;5076414;28;20690;-85
2021/04/22 08:05:09;;;;;;;17.20;4.60;;;7.90;1.00;;;;;;5076196;28;20168;-84
2021/04/22 08:08:09;;;;;;;13.47;4.77;;;8.00;1.00;;;;;;5076387;28;20176;-86
2021/04/22 08:10:37;;;;;;;9.83;4.07;;;8.10;99.90;;;;;;5075050;28;20222;-83
2021/04/22 08:13:04;;;;;;;13.57;4.13;;;8.00;99.90;;;;;;5072481;28;20172;-86
2021/04/22 08:15:32;;;;;;;15.10;4.90;;;8.10;99.90;;;;;;5065236;28;20216;-85
2021/04/22 08:18:03;;;;;;;13.23;4.20;;;8.20;1.00;;;;;;5056180;28;20696;-85
2021/04/22 08:20:33;;;;;;;16.57;4.77;;;8.10;99.90;;;;;;5056062;28;20212;-84
2021/04/22 08:23:03;;;;;;;10.67;3.77;;;8.30;89.70;;;;;;5056242;28;20181;-83
2021/04/22 08:25:42;;;;;;;13.77;4.50;;;8.30;1.00;;;;;;5055837;28;20238;-85
2021/04/22 08:28:09;;;;;;;15.27;4.93;;;8.30;99.90;;;;;;5055799;28;20196;-84
2021/04/22 08:30:44;;;;;;;14.93;4.83;;;8.50;99.90;;;;;;5056871;28;20211;-86
2021/04/22 08:33:12;;;;;;;14.17;5.30;;;8.60;99.90;;;;;;5073442;28;20584;-84
2021/04/22 08:35:38;;;;;;;15.07;5.00;;;8.60;1.00;;;;;;5094613;28;20205;-83
2021/04/22 08:38:05;;;;;;;15.57;4.77;;;8.60;99.90;;;;;;5094863;28;20627;-83
2021/04/22 08:40:31;;;;;;;15.20;5.10;;;8.70;1.00;;;;;;5074477;28;20267;-82
2021/04/22 08:42:57;;;;;;;14.03;4.63;;;8.80;1.00;;;;;;5058685;28;20185;-84
2021/04/22 08:45:33;;;;;;;13.80;4.13;;;8.80;37.40;;;;;;5055612;28;20180;-82
2021/04/22 08:48:00;;;;;;;11.63;4.60;;;9.00;99.90;;;;;;5055075;28;20161;-79
2021/04/22 08:50:29;;;;;;;13.10;4.30;;;8.90;1.00;;;;;;5055908;28;20218;-84
2021/04/22 08:52:58;;;;;;;15.27;4.57;;;8.80;99.90;;;;;;5053416;28;20726;-84
2021/04/22 08:55:28;;;;;;;11.27;3.20;;;8.80;1.00;;;;;;5054629;28;20169;-79
2021/04/22 08:57:54;;;;;;;18.67;5.60;;;8.90;19.60;;;;;;5069362;28;20646;-83
2021/04/22 09:00:24;;;;;;;13.07;4.57;;;8.90;52.50;;;;;;5074710;28;20198;-81
2021/04/22 09:02:50;;;;;;;12.80;5.23;;;8.90;1.00;;;;;;5072978;28;20719;-77
2021/04/22 09:05:17;;;;;;;12.97;4.53;;;9.00;1.00;;;;;;5074910;28;20176;-84
2021/04/22 09:07:43;;;;;;;15.47;4.20;;;9.20;1.00;;;;;;5074307;28;20172;-80
2021/04/22 09:10:14;;;;;;;13.37;3.77;;;9.20;99.90;;;;;;5074153;28;20211;-81
2021/04/22 09:12:39;;;;;;;13.20;4.03;;;9.20;99.90;;;;;;5074119;28;20524;-79
2021/04/22 09:15:13;;;;;;;17.67;4.97;;;9.20;1.00;;;;;;5073899;28;20226;-79
2021/04/22 09:17:40;;;;;;;14.33;4.53;;;9.30;99.90;;;;;;5073621;28;20237;-78
2021/04/22 09:20:09;;;;;;;11.90;3.93;;;9.40;93.40;;;;;;5074182;28;20616;-79
2021/04/22 09:22:36;;;;;;;13.30;4.23;;;9.50;80.90;;;;;;5074069;28;20172;-78
2021/04/22 09:25:14;;;;;;;12.37;4.20;;;9.30;99.90;;;;;;5074492;28;20164;-80
2021/04/22 09:27:39;;;;;;;13.63;4.43;;;9.20;99.90;;;;;;5075039;28;20156;-82
2021/04/22 09:30:06;;;;;;;15.27;5.03;;;9.20;1.00;;;;;;5073951;28;20199;-78
2021/04/22 09:32:32;;;;;;;18.07;4.20;;;9.30;44.80;;;;;;5073654;28;20188;-80
2021/04/22 09:35:14;;;;;;;15.33;4.97;;;9.40;1.00;;;;;;5086288;28;20186;-80
2021/04/22 09:37:48;;;;;;;13.10;4.97;;;9.50;1.00;;;;;;5093169;28;20175;-86
2021/04/22 09:40:35;;;;;;;16.77;5.00;;;9.40;1.00;;;;;;5093747;28;20190;-79
2021/04/22 09:43:06;;;;;;;15.10;5.17;;;9.40;84.60;;;;;;5094518;28;20171;-81
2021/04/22 09:45:34;;;;;;;13.70;4.73;;;9.30;1.00;;;;;;5095311;28;20167;-81
2021/04/22 09:48:00;;;;;;;15.23;4.90;;;9.40;1.00;;;;;;5093753;28;20174;-83
2021/04/22 09:50:28;;;;;;;13.83;4.63;;;9.60;1.00;;;;;;5093494;28;20207;-81
2021/04/22 09:52:56;;;;;;;15.63;4.90;;;9.70;99.90;;;;;;5093130;28;20160;-78
2021/04/22 09:55:31;;;;;;;26.40;6.23;;;9.90;1.00;;;;;;5093111;28;20639;-80
2021/04/22 09:57:57;;;;;;;13.60;4.77;;;10.10;1.00;;;;;;5078139;28;20167;-79
2021/04/22 10:00:28;;;;;;;13.10;4.47;;;9.90;1.00;;;;;;5072240;28;20255;-82
2021/04/22 10:02:57;;;;;;;11.00;4.07;;;9.90;1.00;;;;;;5072404;28;20182;-81
2021/04/22 10:05:25;;;;;;;12.60;4.60;;;9.90;10.00;;;;;;5072505;28;20168;-79
2021/04/22 10:08:03;;;;;;;10.13;4.03;;;10.00;99.90;;;;;;5071912;28;20515;-78
2021/04/22 10:10:30;;;;;;;11.50;4.33;;;10.20;99.90;;;;;;5073492;28;20663;-78
2021/04/22 10:13:04;;;;;;;10.80;4.20;;;10.20;1.00;;;;;;5075000;28;20179;-83
2021/04/22 10:15:33;;;;;;;14.73;4.80;;;10.20;1.00;;;;;;5075037;28;20172;-78
2021/04/22 10:18:04;;;;;;;14.07;4.73;;;10.30;1.00;;;;;;5074518;28;20160;-77
2021/04/22 10:20:38;;;;;;;10.47;4.57;;;10.40;99.90;;;;;;5074623;28;20259;-79
2021/04/22 10:23:07;;;;;;;14.10;4.43;;;10.40;1.00;;;;;;5073020;28;20195;-78
2021/04/22 10:25:35;;;;;;;13.50;4.40;;;10.40;1.00;;;;;;5073179;28;20169;-82
2021/04/22 10:28:06;;;;;;;7.70;3.87;;;10.50;99.90;;;;;;5072817;28;20191;-81
2021/04/22 10:30:32;;;;;;;11.77;4.50;;;10.40;1.00;;;;;;5071491;28;20212;-80
2021/04/22 10:32:59;;;;;;;11.47;4.57;;;10.50;1.00;;;;;;5072423;28;20199;-82
2021/04/22 10:35:28;;;;;;;11.07;4.50;;;10.50;99.90;;;;;;5073002;28;20176;-80
2021/04/22 10:37:54;;;;;;;12.80;4.43;;;10.40;99.90;;;;;;5073717;28;20170;-80
2021/04/22 10:40:32;;;;;;;14.00;4.30;;;10.40;1.00;;;;;;5073303;28;20172;-80
2021/04/22 10:43:00;;;;;;;15.67;4.87;;;10.50;1.00;;;;;;5072572;28;20600;-80
2021/04/22 10:45:28;;;;;;;16.83;5.53;;;10.40;99.90;;;;;;5073108;28;20577;-78
2021/04/22 10:47:54;;;;;;;10.57;4.80;;;10.60;1.00;;;;;;5071807;28;20541;-79
2021/04/22 10:50:32;;;;;;;14.67;5.40;;;10.60;98.60;;;;;;5072889;28;20285;-83
2021/04/22 10:53:01;;;;;;;13.10;5.17;;;10.80;42.40;;;;;;5072151;28;20187;-84
2021/04/22 10:55:33;;;;;;;14.67;4.97;;;10.90;99.90;;;;;;5073514;28;20168;-82
2021/04/22 10:58:14;;;;;;;12.30;5.33;;;10.80;92.50;;;;;;5074009;28;20233;-81
2021/04/22 11:01:14;;;;;;;13.30;4.67;;;10.80;99.90;;;;;;5074541;28;20164;-83
2021/04/22 11:03:45;;;;;;;12.13;5.27;;;10.90;99.90;;;;;;5075075;28;20188;-82
2021/04/22 11:06:20;;;;;;;17.83;5.33;;;11.10;99.90;;;;;;5073375;28;20259;-84
2021/04/22 11:08:51;;;;;;;11.70;5.03;;;11.20;99.90;;;;;;5072133;28;20196;-82
2021/04/22 11:11:34;;;;;;;10.47;5.47;;;11.10;99.90;;;;;;5072886;28;20224;-80
2021/04/22 11:14:12;;;;;;;9.90;4.20;;;10.90;99.90;;;;;;5074083;28;20167;-82
2021/04/22 11:16:41;;;;;;;17.17;5.50;;;11.10;1.00;;;;;;5074844;28;20194;-81
2021/04/22 11:19:16;;;;;;;11.30;4.67;;;11.00;1.00;;;;;;5075068;28;20926;-80
2021/04/22 11:21:54;;;;;;;9.97;4.97;;;11.00;1.00;;;;;;5076968;28;20183;-82
2021/04/22 11:24:34;;;;;;;9.73;4.70;;;11.00;14.30;;;;;;5077570;28;20176;-84
2021/04/22 11:27:06;;;;;;;10.67;4.80;;;11.20;1.00;;;;;;5075654;28;20164;-83
2021/04/22 11:29:47;;;;;;;13.73;5.63;;;11.20;99.90;;;;;;5074975;28;20188;-83
2021/04/22 11:32:23;;;;;;;14.20;5.20;;;11.40;1.00;;;;;;5078875;28;20259;-80
2021/04/22 11:34:52;;;;;;;11.83;4.60;;;11.30;1.00;;;;;;5093855;28;20160;-84
2021/04/22 11:37:24;;;;;;;16.90;5.83;;;11.40;1.00;;;;;;5099441;28;20631;-82
2021/04/22 11:39:51;;;;;;;18.63;5.03;;;11.60;1.00;;;;;;5098708;28;20167;-83
2021/04/22 11:42:18;;;;;;;9.07;4.20;;;11.80;1.00;;;;;;5098643;28;20166;-83
2021/04/22 11:44:49;;;;;;;9.83;5.30;;;11.80;99.90;;;;;;5098642;28;20168;-80
2021/04/22 11:47:20;;;;;;;14.53;5.67;;;11.80;99.90;;;;;;5098621;28;20155;-82
2021/04/22 11:50:01;;;;;;;17.27;5.73;;;11.80;1.00;;;;;;5098444;28;20187;-81
2021/04/22 11:52:27;;;;;;;11.33;5.17;;;11.70;99.90;;;;;;5096509;28;20661;-77
2021/04/22 11:54:53;;;;;;;10.80;5.43;;;11.70;99.90;;;;;;5098234;28;20631;-84
2021/04/22 11:57:18;;;;;;;14.80;5.50;;;11.80;99.90;;;;;;5087361;28;20183;-81
2021/04/22 11:59:53;;;;;;;11.27;5.33;;;11.90;1.00;;;;;;5078279;28;20176;-82
2021/04/22 12:02:18;;;;;;;11.97;5.20;;;11.70;99.90;;;;;;5078348;28;20179;-78
2021/04/22 12:04:50;;;;;;;10.20;4.73;;;11.70;99.90;;;;;;5078420;28;20176;-80
2021/04/22 12:07:19;;;;;;;14.60;5.60;;;11.90;99.90;;;;;;5077740;28;20534;-78
2021/04/22 12:09:53;;;;;;;14.10;5.60;;;11.90;99.90;;;;;;5078561;28;20214;-84
2021/04/22 12:12:22;;;;;;;13.67;5.33;;;12.00;99.90;;;;;;5076358;28;20531;-81
2021/04/22 12:14:56;;;;;;;9.43;5.10;;;11.80;99.90;;;;;;5077651;28;20616;-79
2021/04/22 12:17:31;;;;;;;13.33;5.43;;;11.80;99.90;;;;;;5076320;28;20291;-79
2021/04/22 12:20:03;;;;;;;11.03;5.43;;;11.90;99.90;;;;;;5078064;28;20536;-82
2021/04/22 12:22:41;;;;;;;16.53;5.87;;;11.90;99.90;;;;;;5077462;28;20183;-83
2021/04/22 12:25:22;;;;;;;13.20;6.00;;;12.00;99.90;;;;;;5077189;28;20194;-81
2021/04/22 12:27:51;;;;;;;15.37;4.73;;;12.30;99.90;;;;;;5077851;28;20176;-80
2021/04/22 12:30:32;;;;;;;15.87;5.20;;;12.20;99.90;;;;;;5077214;28;20666;-81
2021/04/22 12:33:09;;;;;;;14.27;5.43;;;12.00;99.90;;;;;;5076683;28;20187;-79
2021/04/22 12:35:37;;;;;;;12.67;4.63;;;12.00;99.90;;;;;;5094507;28;20175;-82
2021/04/22 12:38:24;;;;;;;14.37;5.17;;;12.10;99.90;;;;;;5097223;28;20236;-79
2021/04/22 12:41:02;;;;;;;14.00;5.10;;;12.10;99.90;;;;;;5098140;28;20179;-77
2021/04/22 12:43:30;;;;;;;8.20;4.23;;;12.20;99.90;;;;;;5095513;28;20549;-77
2021/04/22 12:46:11;;;;;;;12.60;5.30;;;12.10;99.90;;;;;;5093788;28;20175;-81
2021/04/22 12:48:39;;;;;;;10.00;4.60;;;12.40;99.90;;;;;;5094416;28;20159;-78
2021/04/22 12:51:05;;;;;;;13.07;4.90;;;12.40;99.90;;;;;;5094725;28;20290;-80
2021/04/22 12:53:39;;;;;;;13.67;4.70;;;12.50;99.90;;;;;;5095110;28;20187;-78
2021/04/22 12:56:11;;;;;;;13.37;4.47;;;12.60;99.90;;;;;;5094862;28;20272;-84
2021/04/22 12:58:45;;;;;;;13.57;4.97;;;12.70;99.90;;;;;;5073639;28;20176;-80
2021/04/22 13:01:17;;;;;;;10.50;5.10;;;12.80;99.90;;;;;;5072114;28;20230;-84